createdAt,value
2022-09-14T00:01:30.434Z,18.60
2022-09-14T00:04:00.475Z,18.60
2022-09-14T00:06:28.266Z,18.60
2022-09-14T00:08:56.576Z,18.60
2022-09-14T00:11:26.045Z,18.60
2022-09-14T00:13:54.110Z,18.60
2022-09-14T14:25:12.705Z,18.10
2022-09-14T14:27:46.212Z,18.10
2022-09-14T14:30:21.354Z,18.10
2022-09-14T14:32:52.447Z,18.20
2022-09-14T14:35:28.864Z,18.20
2022-09-14T14:37:56.944Z,18.20
2022-09-14T14:40:27.440Z,18.20
2022-09-14T14:42:57.696Z,18.20
2022-09-14T14:45:35.377Z,18.20
2022-09-14T14:48:04.291Z,18.20
2022-09-14T14:50:34.139Z,18.20
2022-09-14T14:53:02.167Z,18.20
2022-09-14T14:55:32.385Z,18.10
2022-09-14T14:58:01.781Z,18.00
2022-09-14T15:00:32.155Z,17.90
2022-09-14T15:02:59.479Z,18.00
2022-09-14T15:05:26.762Z,18.00
2022-09-14T15:07:55.014Z,18.00
2022-09-14T15:10:24.700Z,18.00
2022-09-14T15:12:52.459Z,18.10
2022-09-14T15:15:24.349Z,18.10
2022-09-14T15:17:52.648Z,18.00
2022-09-14T15:20:20.026Z,18.00
2022-09-14T15:22:47.824Z,18.00
2022-09-14T15:25:17.157Z,18.10
2022-09-14T15:27:44.370Z,18.00
2022-09-14T15:30:12.123Z,18.10
2022-09-14T15:32:39.902Z,18.10
2022-09-14T15:35:08.909Z,18.20
2022-09-14T15:37:35.783Z,18.20
2022-09-14T15:40:03.830Z,18.30
2022-09-14T15:42:31.269Z,18.30
2022-09-14T15:44:58.298Z,18.30
2022-09-14T15:47:25.531Z,18.30
2022-09-14T15:49:52.964Z,18.30
2022-09-14T15:52:20.655Z,18.30
2022-09-14T15:54:48.442Z,18.40
2022-09-14T15:57:15.625Z,18.50
2022-09-14T15:59:42.531Z,18.50
2022-09-14T16:02:12.544Z,18.50
2022-09-14T16:04:40.105Z,18.50
2022-09-14T16:07:11.304Z,18.60
2022-09-14T16:09:39.821Z,18.60
2022-09-14T16:12:07.923Z,18.50
2022-09-14T16:14:35.054Z,18.60
2022-09-14T16:17:02.707Z,18.60
2022-09-14T16:19:29.728Z,18.60
2022-09-14T16:21:56.702Z,18.60
2022-09-14T16:24:24.810Z,18.60
2022-09-14T16:26:52.540Z,18.60
2022-09-14T16:29:21.682Z,18.50
2022-09-14T16:31:49.418Z,18.50
2022-09-14T16:34:22.061Z,18.50
2022-09-14T16:36:49.467Z,18.50
2022-09-14T16:39:20.248Z,18.40
2022-09-14T16:41:47.283Z,18.30
2022-09-14T16:44:20.832Z,18.40
2022-09-14T16:46:49.378Z,18.30
2022-09-14T16:49:17.545Z,18.30
2022-09-14T16:51:44.563Z,18.30
2022-09-14T16:54:16.571Z,18.30
2022-09-14T16:56:44.508Z,18.30
2022-09-14T16:59:12.200Z,18.20
2022-09-14T17:01:42.808Z,18.30
2022-09-14T17:04:14.978Z,18.20
2022-09-14T17:06:43.991Z,18.20
2022-09-14T17:09:17.105Z,18.10
2022-09-14T17:11:44.736Z,18.10
2022-09-14T17:14:17.834Z,18.00
2022-09-14T17:16:45.234Z,18.00
2022-09-14T17:19:12.536Z,18.00
2022-09-14T17:21:41.099Z,18.00
2022-09-14T17:24:08.526Z,18.00
2022-09-14T17:26:36.473Z,18.10
2022-09-14T17:29:04.653Z,18.00
2022-09-14T17:31:34.264Z,17.90
2022-09-14T17:34:02.659Z,17.90
2022-09-14T17:36:29.610Z,17.90
2022-09-14T17:39:01.986Z,17.80
2022-09-14T17:41:34.030Z,17.80
2022-09-14T17:44:03.273Z,17.80
2022-09-14T17:46:30.838Z,17.80
2022-09-14T17:49:04.372Z,17.80
2022-09-14T17:51:41.520Z,17.70
2022-09-14T17:54:09.289Z,17.60
2022-09-14T17:56:36.940Z,17.60
2022-09-14T17:59:05.631Z,17.50
2022-09-14T18:01:33.640Z,17.50
2022-09-14T18:04:04.879Z,17.40
2022-09-14T18:06:38.499Z,17.40
2022-09-14T18:09:09.055Z,17.40
2022-09-14T18:11:36.672Z,17.30
2022-09-14T18:14:04.764Z,17.30
2022-09-14T18:16:32.622Z,17.20
2022-09-14T18:18:59.938Z,17.20
2022-09-14T18:21:27.473Z,17.10
